createdAt,value
2023-03-27T00:01:17.782Z,100504.59
2023-03-27T00:04:05.433Z,100514.25
2023-03-27T00:06:51.623Z,100521.38
2023-03-27T00:09:39.072Z,100526.09
2023-03-27T00:12:25.026Z,100529.88
2023-03-27T00:15:13.090Z,100541.53
2023-03-27T00:18:03.870Z,100541.19
2023-03-27T00:20:51.646Z,100536.88
2023-03-27T00:23:37.517Z,100552.09
2023-03-27T00:26:23.301Z,100560.28
2023-03-27T00:29:09.333Z,100557.19
2023-03-27T00:31:55.409Z,100573.13
2023-03-27T00:34:41.794Z,100573.81
2023-03-27T00:37:29.107Z,100586.06
2023-03-27T00:40:17.578Z,100591.72
2023-03-27T00:43:18.660Z,100598.09
2023-03-27T00:46:05.892Z,100600.47
2023-03-27T00:48:52.254Z,100601.59
2023-03-27T00:51:38.217Z,100604.50
2023-03-27T00:54:29.884Z,100597.81
2023-03-27T00:57:19.027Z,100611.06
2023-03-27T01:00:12.848Z,100612.41
2023-03-27T01:03:01.041Z,100619.81
2023-03-27T01:05:47.541Z,100621.19
2023-03-27T01:08:34.538Z,100612.78
2023-03-27T01:11:23.438Z,100628.69
2023-03-27T01:14:12.187Z,100630.84
2023-03-27T01:17:02.291Z,100631.31
2023-03-27T01:19:57.520Z,100634.88
2023-03-27T01:22:58.183Z,100636.94
2023-03-27T01:25:46.446Z,100640.00
2023-03-27T01:28:37.837Z,100643.72
2023-03-27T01:31:30.637Z,100645.94
2023-03-27T01:34:22.270Z,100652.38
2023-03-27T01:37:18.349Z,100650.47
2023-03-27T01:40:07.792Z,100657.44
2023-03-27T01:42:55.475Z,100652.72
2023-03-27T01:45:42.340Z,100656.63
2023-03-27T01:48:29.525Z,100663.78
2023-03-27T01:51:16.879Z,100663.78
2023-03-27T01:54:03.043Z,100667.44
2023-03-27T01:56:53.635Z,100670.13
2023-03-27T01:59:41.356Z,100671.34
2023-03-27T02:02:28.092Z,100674.88
2023-03-27T02:05:15.134Z,100682.72
2023-03-27T02:08:03.845Z,100685.34
2023-03-27T02:10:51.139Z,100694.28
2023-03-27T02:13:39.671Z,100701.19
2023-03-27T02:16:26.574Z,100712.72
2023-03-27T02:19:14.250Z,100710.22
2023-03-27T02:22:00.216Z,100718.81
2023-03-27T02:24:46.202Z,100721.69
2023-03-27T02:27:33.310Z,100736.34
2023-03-27T02:30:21.761Z,100739.78
2023-03-27T02:33:14.602Z,100752.88
2023-03-27T02:36:03.144Z,100756.41
2023-03-27T02:38:51.483Z,100766.03
2023-03-27T02:41:37.899Z,100773.09
2023-03-27T02:44:46.457Z,100794.84
2023-03-27T02:47:35.301Z,100798.41
2023-03-27T02:50:22.745Z,100805.56
2023-03-27T02:53:10.336Z,100810.78
2023-03-27T02:55:57.192Z,100823.09
2023-03-27T02:58:45.026Z,100830.09
2023-03-27T03:01:41.123Z,100835.31
2023-03-27T03:04:41.851Z,100840.63
2023-03-27T03:07:34.643Z,100858.09
2023-03-27T03:10:21.096Z,100864.25
2023-03-27T03:13:06.822Z,100882.53
2023-03-27T03:15:52.655Z,100870.41
2023-03-27T03:18:38.584Z,100890.38
2023-03-27T03:21:25.593Z,100910.34
2023-03-27T03:24:12.226Z,100911.34
2023-03-27T03:26:59.893Z,100929.56
2023-03-27T03:29:46.192Z,100931.25
2023-03-27T03:32:39.428Z,100932.94
2023-03-27T03:35:26.461Z,100949.63
2023-03-27T03:38:13.974Z,100949.53
2023-03-27T03:41:05.719Z,100958.31
2023-03-27T03:43:52.003Z,100962.78
2023-03-27T03:46:38.349Z,100967.09
2023-03-27T03:49:24.614Z,100968.00
2023-03-27T03:52:10.462Z,100981.75
2023-03-27T03:54:57.696Z,100980.16
2023-03-27T03:57:46.955Z,100978.47
2023-03-27T04:00:38.957Z,100987.19
2023-03-27T04:03:32.194Z,100985.50
2023-03-27T04:06:20.822Z,100992.56
2023-03-27T04:09:07.683Z,101002.25
2023-03-27T04:12:24.320Z,101000.66
2023-03-27T04:15:17.377Z,101002.66
2023-03-27T04:18:32.450Z,101013.19
2023-03-27T04:21:20.319Z,101018.56
2023-03-27T04:24:08.545Z,101021.22
2023-03-27T04:27:03.867Z,101034.38
2023-03-27T04:30:02.158Z,101043.06
2023-03-27T04:32:51.356Z,101049.22
2023-03-27T04:36:09.890Z,101052.66
2023-03-27T04:39:10.317Z,101060.66
2023-03-27T04:41:58.332Z,101066.09
2023-03-27T04:44:47.560Z,101068.72
2023-03-27T04:47:38.137Z,101071.50
2023-03-27T04:50:25.145Z,101077.72
2023-03-27T04:53:11.590Z,101087.22
2023-03-27T04:56:03.242Z,101090.00
2023-03-27T04:58:54.178Z,101094.50
2023-03-27T05:01:40.464Z,101095.34
2023-03-27T05:04:49.254Z,101093.81
2023-03-27T05:07:38.115Z,101095.66
2023-03-27T05:10:26.438Z,101103.72
2023-03-27T05:13:12.295Z,101102.94
2023-03-27T05:15:59.167Z,101109.94
2023-03-27T05:18:46.959Z,101112.53
2023-03-27T05:21:34.481Z,101116.94
2023-03-27T05:24:20.912Z,101120.56
2023-03-27T05:27:07.674Z,101123.25
2023-03-27T05:29:55.655Z,101132.78
2023-03-27T05:32:41.826Z,101130.09
2023-03-27T05:35:34.678Z,101141.38
2023-03-27T05:38:22.569Z,101142.19
2023-03-27T05:41:26.005Z,101148.16
2023-03-27T05:44:12.176Z,101149.88
2023-03-27T05:47:02.041Z,101159.31
2023-03-27T05:49:49.910Z,101166.16
2023-03-27T05:52:36.398Z,101177.38
2023-03-27T05:55:26.986Z,101180.75
2023-03-27T05:58:15.118Z,101188.44
2023-03-27T06:01:02.413Z,101187.53
2023-03-27T06:03:49.383Z,101196.16
2023-03-27T06:06:40.773Z,101202.22
2023-03-27T06:09:26.838Z,101202.00
2023-03-27T06:12:32.636Z,101207.16
2023-03-27T06:15:27.350Z,101212.09
2023-03-27T06:18:34.471Z,101222.34
2023-03-27T06:21:24.617Z,101214.28
2023-03-27T06:24:16.763Z,101216.66
2023-03-27T06:27:03.720Z,101212.06
2023-03-27T06:29:53.319Z,101220.25
2023-03-27T06:32:43.703Z,101226.69
2023-03-27T06:35:31.629Z,101233.97
2023-03-27T06:38:31.441Z,101235.31
2023-03-27T06:41:17.512Z,101236.47
2023-03-27T06:44:32.871Z,101238.94
2023-03-27T06:47:29.698Z,101233.66
2023-03-27T06:50:41.669Z,101241.09
2023-03-27T06:53:28.839Z,101243.50
2023-03-27T06:56:16.617Z,101243.13
2023-03-27T06:59:22.625Z,101248.13
2023-03-27T07:02:14.225Z,101234.81
2023-03-27T07:05:05.526Z,101239.53
2023-03-27T07:08:03.145Z,101231.00
2023-03-27T07:11:11.585Z,101231.28
2023-03-27T07:14:02.528Z,101210.22
2023-03-27T07:16:49.840Z,101193.84
2023-03-27T07:19:36.413Z,101182.69
2023-03-27T07:22:28.023Z,101159.00
2023-03-27T07:25:16.225Z,101143.94
2023-03-27T07:28:04.374Z,101132.22
2023-03-27T07:30:52.054Z,101110.94
2023-03-27T07:33:40.938Z,101104.34
2023-03-27T07:36:26.846Z,101086.25
2023-03-27T07:39:20.681Z,101080.38
2023-03-27T07:42:07.157Z,101079.63
2023-03-27T07:45:07.889Z,101082.88
2023-03-27T07:47:54.087Z,101075.66
2023-03-27T07:50:40.323Z,101075.44
2023-03-27T07:53:33.999Z,101068.81
2023-03-27T07:56:28.881Z,101076.81
2023-03-27T07:59:50.479Z,101076.59
2023-03-27T08:02:43.610Z,101069.72
2023-03-27T08:05:29.856Z,101071.09
2023-03-27T08:08:25.190Z,101077.06
2023-03-27T08:11:30.428Z,101070.31
2023-03-27T08:14:17.941Z,101067.09
2023-03-27T08:17:15.174Z,101067.22
2023-03-27T08:20:09.124Z,101077.97
2023-03-27T08:23:04.093Z,101061.25
2023-03-27T08:25:50.184Z,101070.41
2023-03-27T08:28:38.763Z,101076.03
2023-03-27T08:31:29.049Z,101073.19
2023-03-27T08:34:18.264Z,101075.31
2023-03-27T08:37:08.676Z,101074.97
2023-03-27T08:40:07.255Z,101080.41
2023-03-27T08:42:54.322Z,101078.69
2023-03-27T08:45:42.221Z,101083.53
2023-03-27T08:48:30.719Z,101084.69
2023-03-27T08:51:18.095Z,101076.03
2023-03-27T08:54:06.106Z,101079.94
2023-03-27T08:56:52.407Z,101082.22
2023-03-27T08:59:38.391Z,101089.59
2023-03-27T09:02:26.254Z,101094.34
2023-03-27T09:05:17.829Z,101088.84
2023-03-27T09:08:06.121Z,101094.22
2023-03-27T09:10:53.039Z,101098.47
2023-03-27T09:13:45.708Z,101097.19
2023-03-27T09:16:32.241Z,101097.06
2023-03-27T09:19:32.373Z,101092.63
2023-03-27T09:22:19.942Z,101086.38
2023-03-27T09:25:23.159Z,101090.72
2023-03-27T09:28:14.206Z,101099.94
2023-03-27T09:31:32.978Z,101100.34
2023-03-27T09:34:23.897Z,101101.19
2023-03-27T09:37:11.794Z,101109.44
2023-03-27T09:39:59.491Z,101114.16
2023-03-27T09:42:47.665Z,101107.22
2023-03-27T09:45:33.849Z,101118.44
2023-03-27T09:48:25.346Z,101122.31
2023-03-27T09:51:26.109Z,101121.75
2023-03-27T09:54:14.536Z,101113.00
2023-03-27T09:57:04.244Z,101115.91
2023-03-27T09:59:56.189Z,101124.97
2023-03-27T10:02:42.285Z,101128.53
2023-03-27T10:05:32.557Z,101129.00
2023-03-27T10:08:27.279Z,101123.72
2023-03-27T10:11:32.521Z,101126.44
2023-03-27T10:14:26.956Z,101123.75
2023-03-27T10:17:15.128Z,101122.59
2023-03-27T10:20:03.061Z,101132.25
2023-03-27T10:22:55.616Z,101128.94
2023-03-27T10:25:49.963Z,101118.34
2023-03-27T10:28:48.932Z,101118.97
2023-03-27T10:31:39.773Z,101125.38
2023-03-27T10:34:37.787Z,101129.84
2023-03-27T10:37:49.801Z,101138.56
2023-03-27T10:40:51.500Z,101127.34
2023-03-27T10:43:49.078Z,101116.00
2023-03-27T10:46:39.446Z,101117.22
2023-03-27T10:49:29.812Z,101119.75
2023-03-27T10:52:19.195Z,101118.31
2023-03-27T10:55:24.034Z,101131.38
2023-03-27T10:58:19.873Z,101171.94
2023-03-27T11:01:06.733Z,101177.16
2023-03-27T11:03:54.398Z,101185.53
2023-03-27T11:06:43.866Z,101188.41
2023-03-27T11:09:33.516Z,101197.03
2023-03-27T11:12:27.334Z,101204.19
2023-03-27T11:15:16.618Z,101221.28
2023-03-27T11:18:04.378Z,101225.34
2023-03-27T11:21:02.068Z,101230.78
2023-03-27T11:24:00.708Z,101241.31
2023-03-27T11:26:57.156Z,101248.63
2023-03-27T11:29:45.362Z,101252.44
2023-03-27T11:32:34.773Z,101253.63
2023-03-27T11:35:22.959Z,101264.03
2023-03-27T11:38:21.713Z,101255.59
2023-03-27T11:41:10.291Z,101257.13
2023-03-27T11:43:56.970Z,101247.50
2023-03-27T11:47:18.751Z,101252.28
2023-03-27T11:50:11.685Z,101243.38
2023-03-27T11:53:12.164Z,101238.69
2023-03-27T11:56:24.633Z,101242.84
2023-03-27T11:59:21.583Z,101238.53
2023-03-27T12:02:23.419Z,101237.81
2023-03-27T12:05:10.492Z,101233.66
2023-03-27T12:08:06.749Z,101222.44
2023-03-27T12:10:53.055Z,101221.34
2023-03-27T12:14:01.171Z,101235.34
2023-03-27T12:17:16.578Z,101236.41
2023-03-27T12:20:20.217Z,101227.47
2023-03-27T12:23:17.352Z,101242.44
2023-03-27T12:26:30.982Z,101250.41
2023-03-27T12:29:28.902Z,101253.63
2023-03-27T12:32:21.834Z,101266.63
2023-03-27T12:35:08.704Z,101285.56
2023-03-27T12:38:01.427Z,101285.16
2023-03-27T12:41:00.386Z,101283.03
2023-03-27T12:43:48.135Z,101284.13
2023-03-27T12:46:45.838Z,101280.97
2023-03-27T12:52:28.777Z,101282.97
2023-03-27T12:55:32.017Z,101273.66
2023-03-27T12:58:30.186Z,101269.75
2023-03-27T13:01:27.559Z,101273.78
2023-03-27T13:04:23.233Z,101271.09
2023-03-27T13:07:11.714Z,101264.13
2023-03-27T13:10:22.308Z,101249.00
2023-03-27T13:13:16.993Z,101249.84
2023-03-27T13:16:11.696Z,101244.75
2023-03-27T13:19:08.300Z,101241.72
2023-03-27T13:22:13.847Z,101240.47
2023-03-27T13:25:07.542Z,101232.13
2023-03-27T13:28:01.756Z,101233.38
2023-03-27T13:30:48.696Z,101229.91
2023-03-27T13:34:11.518Z,101232.84
2023-03-27T13:37:07.287Z,101227.78
2023-03-27T13:40:07.566Z,101237.03
2023-03-27T13:42:57.946Z,101244.03
2023-03-27T13:45:46.919Z,101251.56
2023-03-27T13:49:00.468Z,101284.38
2023-03-27T13:52:08.532Z,101344.38
2023-03-27T13:54:59.616Z,101363.06
2023-03-27T13:58:06.621Z,101346.72
2023-03-27T14:00:56.694Z,101342.34
2023-03-27T14:04:12.634Z,101341.94
2023-03-27T14:07:07.633Z,101331.53
2023-03-27T14:09:58.402Z,101328.53
2023-03-27T14:12:58.162Z,101327.66
2023-03-27T14:15:59.035Z,101317.34
2023-03-27T14:18:56.863Z,101319.78
2023-03-27T14:21:49.751Z,101314.66
2023-03-27T14:24:38.079Z,101295.13
2023-03-27T14:27:33.340Z,101298.84
2023-03-27T14:30:21.659Z,101305.91
2023-03-27T14:33:24.544Z,101306.88
2023-03-27T14:36:16.503Z,101316.38
2023-03-27T14:39:03.807Z,101313.94
2023-03-27T14:42:01.204Z,101319.44
2023-03-27T14:44:48.558Z,101316.47
2023-03-27T14:47:35.869Z,101322.28
2023-03-27T14:50:23.533Z,101333.66
2023-03-27T14:53:14.884Z,101326.41
2023-03-27T14:56:37.902Z,101327.34
2023-03-27T14:59:31.463Z,101322.47
2023-03-27T15:02:20.626Z,101316.78
2023-03-27T15:05:09.511Z,101317.41
2023-03-27T15:07:58.675Z,101321.84
2023-03-27T15:11:16.237Z,101325.97
2023-03-27T15:14:28.856Z,101327.31
2023-03-27T15:17:15.784Z,101326.69
2023-03-27T15:20:06.438Z,101328.69
2023-03-27T15:22:53.417Z,101338.13
2023-03-27T15:25:42.739Z,101329.34
2023-03-27T15:28:29.451Z,101340.41
2023-03-27T15:31:15.169Z,101338.84
2023-03-27T15:34:03.260Z,101338.94
2023-03-27T15:36:50.279Z,101342.78
2023-03-27T15:39:37.628Z,101335.94
2023-03-27T15:42:24.941Z,101332.75
2023-03-27T15:45:11.200Z,101335.31
2023-03-27T15:48:01.059Z,101342.88
2023-03-27T15:50:56.754Z,101345.50
2023-03-27T15:53:44.818Z,101342.75
2023-03-27T15:56:34.413Z,101339.38
2023-03-27T15:59:22.848Z,101340.22
2023-03-27T16:02:11.656Z,101341.63
2023-03-27T16:04:58.534Z,101348.47
2023-03-27T16:07:46.462Z,101347.31
2023-03-27T16:10:33.824Z,101345.78
2023-03-27T16:13:26.486Z,101341.88
2023-03-27T16:16:22.570Z,101355.81
2023-03-27T16:19:11.498Z,101354.38
2023-03-27T16:21:57.663Z,101353.09
2023-03-27T16:24:43.209Z,101350.06
2023-03-27T16:27:29.496Z,101356.94
2023-03-27T16:30:21.615Z,101351.03
2023-03-27T16:33:12.389Z,101357.38
2023-03-27T16:36:00.536Z,101352.94
2023-03-27T16:38:47.154Z,101351.38
2023-03-27T16:41:32.893Z,101360.41
2023-03-27T16:44:19.605Z,101358.38
2023-03-27T16:47:05.649Z,101359.53
2023-03-27T16:50:10.177Z,101350.78
2023-03-27T16:52:57.499Z,101358.91
2023-03-27T16:55:44.697Z,101355.94
2023-03-27T16:58:30.512Z,101369.00
2023-03-27T17:01:16.274Z,101371.41
2023-03-27T17:04:02.297Z,101373.63
2023-03-27T17:06:50.008Z,101385.34
2023-03-27T17:09:36.222Z,101392.59
2023-03-27T17:12:21.981Z,101403.53
2023-03-27T17:15:08.498Z,101407.34
2023-03-27T17:17:54.639Z,101412.19
2023-03-27T17:20:40.675Z,101420.56
2023-03-27T17:23:27.796Z,101443.75
2023-03-27T17:26:16.021Z,101445.47
2023-03-27T17:29:03.239Z,101446.63
2023-03-27T17:31:49.412Z,101462.84
2023-03-27T17:34:35.750Z,101462.41
2023-03-27T17:37:22.042Z,101472.06
2023-03-27T17:40:10.648Z,101464.84
2023-03-27T17:42:56.792Z,101472.09
2023-03-27T17:45:43.129Z,101474.34
2023-03-27T17:48:28.961Z,101470.50
2023-03-27T17:51:14.866Z,101477.06
2023-03-27T17:54:00.643Z,101498.22
2023-03-27T17:56:47.724Z,101498.41
2023-03-27T17:59:33.866Z,101500.66
2023-03-27T18:02:20.728Z,101508.34
2023-03-27T18:05:07.528Z,101492.16
2023-03-27T18:07:53.432Z,101507.34
2023-03-27T18:10:43.915Z,101506.56
2023-03-27T18:13:31.083Z,101513.88
2023-03-27T18:16:18.334Z,101517.81
2023-03-27T18:19:04.389Z,101522.44
2023-03-27T18:21:50.132Z,101524.50
2023-03-27T18:24:36.246Z,101530.13
2023-03-27T18:27:21.978Z,101532.16
2023-03-27T18:30:12.171Z,101532.00
2023-03-27T18:32:58.275Z,101528.72
2023-03-27T18:35:44.591Z,101543.09
2023-03-27T18:38:30.446Z,101533.78
2023-03-27T18:41:16.518Z,101530.56
2023-03-27T18:44:02.228Z,101537.00
2023-03-27T18:46:49.406Z,101537.16
2023-03-27T18:49:35.274Z,101535.63
2023-03-27T18:52:21.328Z,101535.03
2023-03-27T18:55:08.153Z,101543.22
2023-03-27T18:57:54.318Z,101542.06
2023-03-27T19:00:40.408Z,101546.63
2023-03-27T19:03:30.247Z,101551.16
2023-03-27T19:06:18.081Z,101558.53
2023-03-27T19:09:05.489Z,101555.38
2023-03-27T19:11:55.185Z,101558.13
2023-03-27T19:15:09.837Z,101547.03
2023-03-27T19:18:25.440Z,101551.16
2023-03-27T19:21:25.467Z,101558.34
2023-03-27T19:24:21.630Z,101554.16
2023-03-27T19:27:08.204Z,101547.56
2023-03-27T19:30:11.232Z,101544.31
2023-03-27T19:32:58.134Z,101551.63
2023-03-27T19:35:44.295Z,101539.63
2023-03-27T19:38:33.783Z,101542.59
2023-03-27T19:41:19.574Z,101552.13
2023-03-27T19:44:05.545Z,101551.25
2023-03-27T19:46:51.426Z,101552.97
2023-03-27T19:49:37.762Z,101550.19
2023-03-27T19:52:37.512Z,101562.28
2023-03-27T19:55:25.714Z,101562.28
2023-03-27T19:58:11.745Z,101575.31
2023-03-27T20:00:58.171Z,101564.06
2023-03-27T20:03:44.239Z,101569.31
2023-03-27T20:06:30.820Z,101568.53
2023-03-27T20:09:16.714Z,101578.25
2023-03-27T20:12:03.973Z,101572.28
2023-03-27T20:15:02.280Z,101572.28
2023-03-27T20:17:56.502Z,101575.00
2023-03-27T20:20:42.317Z,101590.97
2023-03-27T20:23:32.886Z,101580.56
2023-03-27T20:26:21.174Z,101574.47
2023-03-27T20:29:13.188Z,101576.31
2023-03-27T20:31:59.200Z,101581.78
2023-03-27T20:34:46.150Z,101576.53
2023-03-27T20:37:34.128Z,101585.34
2023-03-27T20:43:35.919Z,101581.38
2023-03-27T20:46:23.112Z,101585.91
2023-03-27T20:49:09.334Z,101585.22
2023-03-27T20:51:57.030Z,101584.38
2023-03-27T20:54:42.875Z,101590.59
2023-03-27T20:57:31.344Z,101586.28
2023-03-27T21:00:17.630Z,101589.13
2023-03-27T21:03:05.173Z,101590.97
2023-03-27T21:05:51.515Z,101586.66
2023-03-27T21:08:37.558Z,101591.03
2023-03-27T21:11:23.200Z,101601.59
2023-03-27T21:14:09.003Z,101606.69
2023-03-27T21:16:54.893Z,101609.31
2023-03-27T21:19:41.931Z,101610.09
2023-03-27T21:22:27.661Z,101606.47
2023-03-27T21:25:13.552Z,101628.13
2023-03-27T21:27:59.311Z,101627.94
2023-03-27T21:30:47.083Z,101639.09
2023-03-27T21:33:34.821Z,101648.59
2023-03-27T21:36:22.526Z,101645.13
2023-03-27T21:39:09.018Z,101655.44
2023-03-27T21:41:55.263Z,101661.47
2023-03-27T21:44:41.215Z,101667.47
2023-03-27T21:47:37.288Z,101661.34
2023-03-27T21:50:31.106Z,101677.69
2023-03-27T21:53:18.106Z,101676.78
2023-03-27T21:56:04.218Z,101676.63
2023-03-27T21:58:50.254Z,101686.19
2023-03-27T22:01:36.658Z,101678.25
2023-03-27T22:04:22.626Z,101677.31
2023-03-27T22:07:08.419Z,101672.06
2023-03-27T22:09:55.673Z,101677.09
2023-03-27T22:12:41.715Z,101670.94
2023-03-27T22:15:27.497Z,101675.19
2023-03-27T22:18:13.489Z,101667.25
2023-03-27T22:20:59.920Z,101678.34
2023-03-27T22:23:46.334Z,101685.44
2023-03-27T22:26:34.897Z,101689.53
2023-03-27T22:29:21.274Z,101688.53
2023-03-27T22:32:07.378Z,101679.91
2023-03-27T22:34:53.421Z,101686.69
2023-03-27T22:37:39.936Z,101685.63
2023-03-27T22:40:25.690Z,101688.25
2023-03-27T22:43:23.073Z,101683.16
2023-03-27T22:46:10.067Z,101698.06
2023-03-27T22:48:56.592Z,101706.28
2023-03-27T22:51:42.570Z,101703.56
2023-03-27T22:54:28.506Z,101706.44
2023-03-27T22:57:14.422Z,101709.34
2023-03-27T23:00:01.613Z,101709.47
2023-03-27T23:02:47.792Z,101711.41
2023-03-27T23:05:38.296Z,101718.63
2023-03-27T23:08:27.297Z,101728.56
2023-03-27T23:11:20.464Z,101731.22
2023-03-27T23:14:33.212Z,101734.75
2023-03-27T23:20:28.405Z,101754.28
2023-03-27T23:23:14.346Z,101763.06
2023-03-27T23:26:00.428Z,101764.75
2023-03-27T23:28:46.652Z,101753.63
2023-03-27T23:31:32.428Z,101760.56
2023-03-27T23:34:19.406Z,101770.28
2023-03-27T23:37:05.943Z,101769.56
2023-03-27T23:39:51.919Z,101773.16
2023-03-27T23:42:37.766Z,101770.63
2023-03-27T23:45:23.615Z,101777.84
2023-03-27T23:48:09.231Z,101789.16
2023-03-27T23:50:56.925Z,101793.69
2023-03-27T23:53:43.405Z,101794.41
2023-03-27T23:56:29.133Z,101810.13
2023-03-27T23:59:15.284Z,101812.69
